This demonstration page uses our WeatherBlox Daily Observations layout. Learn more.

Left ArrowRight Arrow

38.83388, -104.82136

Hourly Observations for April 2, 2022

Temp ( °F °C ) Dew Point ( °F °C ) Humidity (%) Winds ( mph kmh ) Pressure ( in mb ) Visibility ( mi km ) Precip ( " mm )
2:58 am 02:58 Clear 34 1.1 23 -5.2 63 63 Calm N/A 10 16 0.00 0.00
3:58 am 03:58 Clear 32 0 22 -5.4 67 67 Calm N/A 10 16 0.00 0.00
4:58 am 04:58 Clear 32 -0.1 22 -5.3 68 68 WNW 6 9 N/A 10 16 0.00 0.00
5:58 am 05:58 Clear 32 0.1 23 -4.9 69 69 W 8 13 N/A 10 16 0.00 0.00
7:58 am 07:58 Sunny 43 6.2 18 -7.8 36 36 ESE 8 13 N/A 10 16 0.00 0.00
8:58 am 08:58 Sunny 48 8.8 18 -7.8 30 30 NE 3 6 N/A 10 16 0.00 0.00
9:58 am 09:58 Mostly Cloudy 49 9.5 23 -4.8 36 36 Calm N/A 10 16 0.00 0.00
10:58 am 10:58 Sunny 51 10.7 22 -5.3 32 32 E 6 9 N/A 10 16 0.00 0.00
11:58 am 11:58 Sunny 56 13.6 24 -4.6 28 28 NE 7 11 N/A 10 16 0.00 0.00
12:58 pm 12:58 Sunny 58 14.3 21 -6 24 24 E 14 22 N/A 10 16 0.00 0.00
1:58 pm 13:58 Sunny 63 17 21 -6.1 20 20 ESE 13 20 N/A 10 16 0.00 0.00
2:58 pm 14:58 Sunny 62 16.8 17 -8.4 17 17 SSW 5 7 N/A 10 16 0.00 0.00
3:58 pm 15:58 Mostly Sunny 65 18.4 20 -6.4 18 18 E 9 15 N/A 10 16 0.00 0.00
4:58 pm 16:58 Sunny 62 16.9 18 -7.6 18 18 WSW 8 13 N/A 10 16 0.00 0.00
5:58 pm 17:58 Mostly Sunny 58 14.6 21 -6.3 23 23 WSW 6 9 N/A 10 16 0.00 0.00
6:58 pm 18:58 Sunny 59 15.1 18 -7.7 20 20 Calm N/A 10 16 0.00 0.00
7:58 pm 19:58 Clear 58 14.6 20 -6.9 22 22 Calm N/A 10 16 0.00 0.00
8:58 pm 20:58 Clear 55 12.9 21 -6.2 26 26 WSW 8 13 N/A 10 16 0.00 0.00
9:58 pm 21:58 Clear 54 12 20 -6.9 26 26 WSW 12 19 N/A 10 16 0.00 0.00
10:58 pm 22:58 Clear 52 11.3 20 -6.6 28 28 SW 7 11 N/A 10 16 0.00 0.00
11:58 pm 23:58 Clear 52 11.1 19 -7.2 27 27 SE 3 6 N/A 10 16 0.00 0.00

Powered by AerisWeather